Tropical Cyclones
[Index]
Main Index Home Page Stock Weather Photos Extreme Storms Discussion Storm News and Storm Chasing Reports Tropical Cyclones / Hurricanes / Typhoons Weather Data and Links Wild Fires / Bushfires Weather Observation Techniques Weather Picture Catalogue Tornado Pictures and Reports Stock Video Footage and DVDs for sale
Season 1962-1963 Tropical Cyclone 196319 Track Map
Season 1962-1963 Summaries: [BoM-AU] [JTWC-AU] [JTWC-SIO] [JTWC-SPAC] [JTWC-SH]
<<- Previous TC | JTWC 1962-1963 Season | Next TC ->>

click for intensity scale information  Lat/long Grid: Show Hide

 Date Labels: Show Hide

Joint Typhoon Warning Centre Cyclone Data

Name: 196319
Number: 466 / 6319

19 Jan 1963 00:00 UTC to 29 Jan 1963 18:00 UTC

    date/time    lat    long     hPa   cat  kts
1963-01-19 00   12.8   123.9                              
1963-01-19 06   12.9   123.6                              
1963-01-19 12   12.9   123.4                              
1963-01-19 18   13.0   123.2                              
1963-01-20 00   13.0   122.9                              
1963-01-20 06   13.1   122.3                              
1963-01-20 12   13.2   121.7                              
1963-01-20 18   13.6   121.4                              
1963-01-21 00   14.1   121.2                              
1963-01-21 06   14.7   121.1                              
1963-01-21 12   15.2   121.2                              
1963-01-21 18   15.6   121.6                              
1963-01-22 00   16.0   122.0                              
1963-01-22 06   16.5   122.3                              
1963-01-22 12   16.9   122.2                              
1963-01-22 18   17.0   121.6                              
1963-01-23 00   17.1   121.0                              
1963-01-23 06   17.2   120.5                              
1963-01-23 12   17.4   120.0                              
1963-01-23 18   17.8   119.7                              
1963-01-24 00   18.3   119.2                              
1963-01-24 06   18.8   118.3                              
1963-01-24 12   19.3   117.2                              
1963-01-24 18   19.3   116.2                              
1963-01-25 00   19.3   115.1                              
1963-01-25 06   19.7   113.9                              
1963-01-25 12   20.2   112.9                              
1963-01-25 18   21.3   112.3                              
1963-01-26 00   21.9   112.1                              
1963-01-26 06   22.2   111.9                              
1963-01-26 12   22.4   111.7                              
1963-01-26 18   22.7   111.5                              
1963-01-27 00   23.1   111.3                              
1963-01-27 06   23.6   111.0                              
1963-01-27 12   24.2   111.2                              
1963-01-27 18   24.5   111.6                              
1963-01-28 00   25.0   112.1                              
1963-01-28 06   26.1   112.5                              
1963-01-28 12   27.3   113.0                              
1963-01-28 18   28.4   112.6                              
1963-01-29 00   28.9   112.3                              
1963-01-29 06   29.0   112.2                              
1963-01-29 12   29.0   112.2                              
1963-01-29 18   29.1   112.1                              
Winds are 1-min average.

Tropical cyclone tracks developed by Michael Bath using data from the Joint Typhoon Warning Centre Best Tracks and Google Maps.


[Australian Severe Weather index] [Copyright Notice] [Email Contacts] [Search This Site] [Privacy Policy]
Document: tropical_cyclone_196319.htm Updated: 18 September 2016